Temp: 3.9°C   Baro: 1036.4mb
  Wind: 2.0mph   Dir: W (273°)
  Rain: 0.0mm (0.0mm/hr)
  Solar: 0W/m2  Hum: 84%

Historic data

Bath Spa Weather Station Historical Data
Daily Summary for December 11, 2019 Units:  Both    English   Metric
Daily Weekly Monthly Yearly Custom
  High: Low: Average:
Temperature: 45.9 °F /  7.7 °C 34.3 °F /  1.3 °C 40.4 °F /  4.7 °C
Dew Point: 40.8 °F /  4.9 °C 32.5 °F /  0.3 °C 37.4 °F /  3 °C
Humidity: 94% 80% 89%
Wind Speed: 12.2mph /  19.6km/h - 2.7mph /  4.3km/h
Wind Gust: 27mph /  43.5km/h - -
Wind- - WSW
Pressure: 29.78 in /  1008.4 hPa 29.55 in /  1000.6 hPa -
Precipitation: 0.06 in /  1.52 mm    
Historical Graphs
 
 
Tabular Data for December 11, 2019
Time Temperature Dew Point Pressure Wind Wind Speed Wind Gust Humidity Rainfall Rate (Hourly) solar
00:09 43.2 °F /  6.2 °C 40.6 °F /  4.8 °C 29.78in /  1008.4hPa West 1.2mph /  1.9km/h 5mph /  8km/h 91% 0.01in /  0.25mm 0 W/m2
00:14 43.3 °F /  6.3 °C 40.7 °F /  4.8 °C 29.78in /  1008.4hPa WSW 2.1mph /  3.4km/h 5mph /  8km/h 91% 0.01in /  0.25mm 0 W/m2
00:19 43.3 °F /  6.3 °C 40.8 °F /  4.9 °C 29.78in /  1008.4hPa WSW 3.5mph /  5.6km/h 8mph /  12.9km/h 91% 0.01in /  0.25mm 0 W/m2
00:24 43.5 °F /  6.4 °C 40.8 °F /  4.9 °C 29.78in /  1008.4hPa WSW 3.3mph /  5.3km/h 7mph /  11.3km/h 90% 0.01in /  0.25mm 0 W/m2
00:29 43.5 °F /  6.4 °C 40.8 °F /  4.9 °C 29.78in /  1008.4hPa West 3.5mph /  5.6km/h 7mph /  11.3km/h 90% 0.01in /  0.25mm 0 W/m2
00:34 43.5 °F /  6.4 °C 40.7 °F /  4.8 °C 29.78in /  1008.4hPa West 2mph /  3.2km/h 7mph /  11.3km/h 89.8% 0.01in /  0.25mm 0 W/m2
00:39 43.3 °F /  6.3 °C 40.3 °F /  4.6 °C 29.78in /  1008.4hPa West 0.2mph /  0.3km/h 6mph /  9.7km/h 89% 0.01in /  0.25mm 0 W/m2
00:44 43.2 °F /  6.2 °C 40.2 °F /  4.6 °C 29.78in /  1008.4hPa West 1.1mph /  1.8km/h 4mph /  6.4km/h 89% 0.01in /  0.25mm 0 W/m2
00:49 43 °F /  6.1 °C 39.9 °F /  4.4 °C 29.78in /  1008.4hPa West 0.6mph /  1km/h 3mph /  4.8km/h 89% 0.01in /  0.25mm 0 W/m2
00:54 42.8 °F /  6 °C 39.7 °F /  4.3 °C 29.78in /  1008.4hPa West 0.8mph /  1.3km/h 4mph /  6.4km/h 89% 0.00in /  0mm 0 W/m2
00:59 42.5 °F /  5.8 °C 39.5 °F /  4.2 °C 29.78in /  1008.4hPa West 1.1mph /  1.8km/h 4mph /  6.4km/h 89% 0.00in /  0mm 0 W/m2
01:04 42.4 °F /  5.8 °C 39.4 °F /  4.1 °C 29.78in /  1008.4hPa West 0.8mph /  1.3km/h 3mph /  4.8km/h 89% 0.00in /  0mm 0 W/m2
01:09 42.3 °F /  5.7 °C 39.2 °F /  4 °C 29.78in /  1008.4hPa West 0.6mph /  1km/h 2mph /  3.2km/h 89% 0.00in /  0mm 0 W/m2
01:14 42.1 °F /  5.6 °C 39 °F /  3.9 °C 29.78in /  1008.4hPa West 1.5mph /  2.4km/h 3mph /  4.8km/h 89% 0.00in /  0mm 0 W/m2
01:19 42.1 °F /  5.6 °C 39 °F /  3.9 °C 29.78in /  1008.4hPa West 0.2mph /  0.3km/h 3mph /  4.8km/h 89% 0.00in /  0mm 0 W/m2
01:24 42 °F /  5.6 °C 39.2 °F /  4 °C 29.78in /  1008.4hPa West 2.4mph /  3.9km/h 6mph /  9.7km/h 89.8% 0.00in /  0mm 0 W/m2
01:29 42 °F /  5.6 °C 39.3 °F /  4.1 °C 29.78in /  1008.4hPa West 1.5mph /  2.4km/h 6mph /  9.7km/h 90% 0.00in /  0mm 0 W/m2
01:34 42.1 °F /  5.6 °C 39.4 °F /  4.1 °C 29.78in /  1008.4hPa Calm   6mph /  9.7km/h 90% 0.00in /  0mm 0 W/m2
01:39 41.9 °F /  5.5 °C 39.2 °F /  4 °C 29.78in /  1008.4hPa Calm   3mph /  4.8km/h 90% 0.00in /  0mm 0 W/m2
01:44 41.7 °F /  5.4 °C 39 °F /  3.9 °C 29.78in /  1008.4hPa West 0.8mph /  1.3km/h 6mph /  9.7km/h 90% 0.00in /  0mm 0 W/m2
01:49 41.7 °F /  5.4 °C 39 °F /  3.9 °C 29.78in /  1008.4hPa West 0.2mph /  0.3km/h 2mph /  3.2km/h 90% 0.00in /  0mm 0 W/m2
01:54 41.7 °F /  5.4 °C 39 °F /  3.9 °C 29.78in /  1008.4hPa Calm     90% 0.00in /  0mm 0 W/m2
01:59 41.7 °F /  5.4 °C 39 °F /  3.9 °C 29.78in /  1008.4hPa Calm     90% 0.00in /  0mm 0 W/m2
02:04 41.5 °F /  5.3 °C 38.8 °F /  3.8 °C 29.78in /  1008.4hPa Calm     90% 0.00in /  0mm 0 W/m2
02:09 41.5 °F /  5.3 °C 38.8 °F /  3.8 °C 29.78in /  1008.4hPa Calm     90% 0.00in /  0mm 0 W/m2
02:14 41.4 °F /  5.2 °C 38.7 °F /  3.7 °C 29.78in /  1008.4hPa Calm     90% 0.00in /  0mm 0 W/m2
02:19 41 °F /  5 °C 38.3 °F /  3.5 °C 29.78in /  1008.4hPa Calm     90% 0.00in /  0mm 0 W/m2
02:24 40.6 °F /  4.8 °C 37.9 °F /  3.3 °C 29.78in /  1008.4hPa Calm     90% 0.00in /  0mm 0 W/m2
02:29 40.3 °F /  4.6 °C 37.7 °F /  3.2 °C 29.78in /  1008.4hPa West 0.3mph /  0.5km/h 1mph /  1.6km/h 90% 0.00in /  0mm 0 W/m2
02:34 40.1 °F /  4.5 °C 37.4 °F /  3 °C 29.78in /  1008.4hPa Calm   1mph /  1.6km/h 90% 0.00in /  0mm 0 W/m2
02:39 39.9 °F /  4.4 °C 37.5 °F /  3.1 °C 29.78in /  1008.4hPa West 1.8mph /  2.9km/h 4mph /  6.4km/h 90.8% 0.00in /  0mm 0 W/m2
02:44 39.9 °F /  4.4 °C 37.6 °F /  3.1 °C 29.78in /  1008.4hPa West 1.5mph /  2.4km/h 6mph /  9.7km/h 91% 0.00in /  0mm 0 W/m2
02:49 39.9 °F /  4.4 °C 37.6 °F /  3.1 °C 29.78in /  1008.4hPa West 1.1mph /  1.8km/h 4mph /  6.4km/h 91% 0.00in /  0mm 0 W/m2
02:54 39.8 °F /  4.3 °C 37.5 °F /  3.1 °C 29.78in /  1008.4hPa Calm   3mph /  4.8km/h 91% 0.00in /  0mm 0 W/m2
02:59 39.7 °F /  4.3 °C 37.4 °F /  3 °C 29.78in /  1008.4hPa West 1.2mph /  1.9km/h 3mph /  4.8km/h 91% 0.00in /  0mm 0 W/m2
03:04 39.7 °F /  4.3 °C 37.3 °F /  2.9 °C 29.78in /  1008.4hPa West 0.5mph /  0.8km/h 2mph /  3.2km/h 91% 0.00in /  0mm 0 W/m2
03:09 39.6 °F /  4.2 °C 37.2 °F /  2.9 °C 29.78in /  1008.4hPa West 1mph /  1.6km/h 3mph /  4.8km/h 91% 0.00in /  0mm 0 W/m2
03:14 39.7 °F /  4.3 °C 37.4 °F /  3 °C 29.78in /  1008.4hPa West 0.8mph /  1.3km/h 3mph /  4.8km/h 91.4% 0.00in /  0mm 0 W/m2
03:19 39.6 °F /  4.2 °C 37.4 °F /  3 °C 29.78in /  1008.4hPa West 0.4mph /  0.6km/h 3mph /  4.8km/h 92% 0.00in /  0mm 0 W/m2
03:24 39.4 °F /  4.1 °C 37.2 °F /  2.9 °C 29.78in /  1008.4hPa West 0.5mph /  0.8km/h 3mph /  4.8km/h 92% 0.00in /  0mm 0 W/m2
03:29 39.4 °F /  4.1 °C 37.2 °F /  2.9 °C 29.78in /  1008.4hPa West 0.2mph /  0.3km/h 2mph /  3.2km/h 92% 0.00in /  0mm 0 W/m2
03:34 39.4 °F /  4.1 °C 37.2 °F /  2.9 °C 29.78in /  1008.4hPa West 0.2mph /  0.3km/h 2mph /  3.2km/h 92% 0.00in /  0mm 0 W/m2
03:39 39.6 °F /  4.2 °C 37.3 °F /  2.9 °C 29.77in /  1008hPa West 0.2mph /  0.3km/h 1mph /  1.6km/h 92% 0.00in /  0mm 0 W/m2
03:44 39.6 °F /  4.2 °C 37.4 °F /  3 °C 29.78in /  1008.4hPa West 0.6mph /  1km/h 4mph /  6.4km/h 92% 0.00in /  0mm 0 W/m2
03:49 39.7 °F /  4.3 °C 37.5 °F /  3.1 °C 29.77in /  1008hPa West 1.4mph /  2.3km/h 4mph /  6.4km/h 92% 0.00in /  0mm 0 W/m2
03:54 39.9 °F /  4.4 °C 37.8 °F /  3.2 °C 29.77in /  1008hPa West 0.6mph /  1km/h 4mph /  6.4km/h 92% 0.00in /  0mm 0 W/m2
03:59 39.9 °F /  4.4 °C 37.8 °F /  3.2 °C 29.77in /  1008hPa Calm   4mph /  6.4km/h 92% 0.00in /  0mm 0 W/m2
04:04 39.8 °F /  4.3 °C 37.7 °F /  3.2 °C 29.77in /  1008hPa Calm   4mph /  6.4km/h 92% 0.00in /  0mm 0 W/m2
04:09 39.7 °F /  4.3 °C 37.6 °F /  3.1 °C 29.77in /  1008hPa West 0.5mph /  0.8km/h 3mph /  4.8km/h 92% 0.00in /  0mm 0 W/m2
04:14 39.7 °F /  4.3 °C 37.5 °F /  3.1 °C 29.76in /  1007.7hPa West 3.6mph /  5.8km/h 6mph /  9.7km/h 92% 0.00in /  0mm 0 W/m2
04:19 39.7 °F /  4.3 °C 37.6 °F /  3.1 °C 29.76in /  1007.7hPa Calm   6mph /  9.7km/h 92% 0.00in /  0mm 0 W/m2
04:24 39.6 °F /  4.2 °C 37.4 °F /  3 °C 29.77in /  1008hPa West 0.8mph /  1.3km/h 4mph /  6.4km/h 92% 0.00in /  0mm 0 W/m2
04:29 39.6 °F /  4.2 °C 37.4 °F /  3 °C 29.76in /  1007.7hPa Calm   2mph /  3.2km/h 92% 0.00in /  0mm 0 W/m2
04:34 39.6 °F /  4.2 °C 37.4 °F /  3 °C 29.76in /  1007.7hPa West 0.4mph /  0.6km/h 2mph /  3.2km/h 92% 0.00in /  0mm 0 W/m2
04:39 39.6 °F /  4.2 °C 37.4 °F /  3 °C 29.76in /  1007.7hPa West 1.2mph /  1.9km/h 5mph /  8km/h 92% 0.00in /  0mm 0 W/m2
04:44 39.7 °F /  4.3 °C 37.6 °F /  3.1 °C 29.76in /  1007.7hPa WSW 1.7mph /  2.7km/h 6mph /  9.7km/h 92% 0.00in /  0mm 0 W/m2
04:49 39.7 °F /  4.3 °C 37.6 °F /  3.1 °C 29.75in /  1007.3hPa SW 0.8mph /  1.3km/h 4mph /  6.4km/h 92% 0.00in /  0mm 0 W/m2
04:54 39.7 °F /  4.3 °C 37.6 °F /  3.1 °C 29.75in /  1007.3hPa Calm   1mph /  1.6km/h 92% 0.00in /  0mm 0 W/m2
04:59 39.6 °F /  4.2 °C 37.4 °F /  3 °C 29.75in /  1007.3hPa SW 0.6mph /  1km/h 3mph /  4.8km/h 92% 0.00in /  0mm 0 W/m2
05:04 39.6 °F /  4.2 °C 37.4 °F /  3 °C 29.75in /  1007.3hPa SW 3.2mph /  5.1km/h 6mph /  9.7km/h 92% 0.00in /  0mm 0 W/m2
05:09 39.6 °F /  4.2 °C 37.5 °F /  3.1 °C 29.75in /  1007.3hPa SW 1.3mph /  2.1km/h 5mph /  8km/h 92% 0.00in /  0mm 0 W/m2
05:14 39.6 °F /  4.2 °C 37.5 °F /  3.1 °C 29.75in /  1007.3hPa SW 1mph /  1.6km/h 4mph /  6.4km/h 92% 0.00in /  0mm 0 W/m2
05:19 39.6 °F /  4.2 °C 37.4 °F /  3 °C 29.74in /  1007hPa SW 1.8mph /  2.9km/h 4mph /  6.4km/h 92% 0.00in /  0mm 0 W/m2
05:24 39.6 °F /  4.2 °C 37.4 °F /  3 °C 29.74in /  1007hPa WSW 2.2mph /  3.5km/h 6mph /  9.7km/h 92% 0.00in /  0mm 0 W/m2
05:29 39.7 °F /  4.3 °C 37.5 °F /  3.1 °C 29.74in /  1007hPa WSW 1.3mph /  2.1km/h 4mph /  6.4km/h 91.4% 0.00in /  0mm 0 W/m2
05:34 39.7 °F /  4.3 °C 37.4 °F /  3 °C 29.74in /  1007hPa WSW 1.5mph /  2.4km/h 4mph /  6.4km/h 91% 0.00in /  0mm 0 W/m2
05:39 39.7 °F /  4.3 °C 37.3 °F /  2.9 °C 29.74in /  1007hPa WSW 2.2mph /  3.5km/h 4mph /  6.4km/h 91% 0.00in /  0mm 0 W/m2
05:44 39.6 °F /  4.2 °C 37.2 °F /  2.9 °C 29.73in /  1006.7hPa WSW 1.4mph /  2.3km/h 4mph /  6.4km/h 91% 0.00in /  0mm 0 W/m2
05:49 39.6 °F /  4.2 °C 37.2 °F /  2.9 °C 29.73in /  1006.7hPa WSW 1.3mph /  2.1km/h 4mph /  6.4km/h 91% 0.00in /  0mm 0 W/m2
05:54 39.6 °F /  4.2 °C 37.2 °F /  2.9 °C 29.73in /  1006.7hPa WSW 0.6mph /  1km/h 3mph /  4.8km/h 91% 0.00in /  0mm 0 W/m2
05:59 39.6 °F /  4.2 °C 37.2 °F /  2.9 °C 29.73in /  1006.7hPa Calm   4mph /  6.4km/h 91% 0.00in /  0mm 0 W/m2
06:04 39.7 °F /  4.3 °C 37.3 °F /  2.9 °C 29.72in /  1006.3hPa WSW 4.7mph /  7.6km/h 6mph /  9.7km/h 91% 0.00in /  0mm 0 W/m2
06:09 40.2 °F /  4.6 °C 37.8 °F /  3.2 °C 29.72in /  1006.3hPa SW 4mph /  6.4km/h 10mph /  16.1km/h 91% 0.00in /  0mm 0 W/m2
06:14 40.6 °F /  4.8 °C 38.3 °F /  3.5 °C 29.72in /  1006.3hPa SSW 6.4mph /  10.3km/h 10mph /  16.1km/h 91% 0.00in /  0mm 0 W/m2
06:19 40.8 °F /  4.9 °C 38.5 °F /  3.6 °C 29.72in /  1006.3hPa SW 4.5mph /  7.2km/h 8mph /  12.9km/h 91% 0.00in /  0mm 0 W/m2
06:24 40.8 °F /  4.9 °C 38.4 °F /  3.6 °C 29.72in /  1006.3hPa SSW 2.9mph /  4.7km/h 8mph /  12.9km/h 90.6% 0.00in /  0mm 0 W/m2
06:29 41.1 °F /  5.1 °C 38.5 °F /  3.6 °C 29.72in /  1006.3hPa SSW 3mph /  4.8km/h 8mph /  12.9km/h 90.3% 0.00in /  0mm 0 W/m2
06:34 41.2 °F /  5.1 °C 38.5 °F /  3.6 °C 29.72in /  1006.3hPa SSW 3.3mph /  5.3km/h 7mph /  11.3km/h 90% 0.00in /  0mm 0 W/m2
06:39 41.2 °F /  5.1 °C 38.5 °F /  3.6 °C 29.72in /  1006.3hPa SSW 1.7mph /  2.7km/h 9mph /  14.5km/h 90% 0.00in /  0mm 0 W/m2
06:44 41 °F /  5 °C 38 °F /  3.3 °C 29.71in /  1006hPa SSW 4.8mph /  7.7km/h 12mph /  19.3km/h 89.2% 0.00in /  0mm 0 W/m2
06:49 41 °F /  5 °C 38 °F /  3.3 °C 29.71in /  1006hPa SSW 3.6mph /  5.8km/h 11mph /  17.7km/h 89% 0.00in /  0mm 0 W/m2
06:54 41.2 °F /  5.1 °C 38.1 °F /  3.4 °C 29.71in /  1006hPa SSW 3.7mph /  6km/h 8mph /  12.9km/h 89% 0.00in /  0mm 0 W/m2
06:59 41.2 °F /  5.1 °C 38.1 °F /  3.4 °C 29.71in /  1006hPa SSW 3.3mph /  5.3km/h 7mph /  11.3km/h 89% 0.00in /  0mm 0 W/m2
07:04 41.1 °F /  5.1 °C 38 °F /  3.3 °C 29.71in /  1006hPa South 3.4mph /  5.5km/h 10mph /  16.1km/h 89% 0.00in /  0mm 0 W/m2
07:09 41 °F /  5 °C 37.9 °F /  3.3 °C 29.71in /  1006hPa South 5.7mph /  9.2km/h 12mph /  19.3km/h 89% 0.00in /  0mm 0 W/m2
07:14 40.8 °F /  4.9 °C 37.8 °F /  3.2 °C 29.71in /  1006hPa South 2.4mph /  3.9km/h 12mph /  19.3km/h 89% 0.00in /  0mm 0 W/m2
07:19 41 °F /  5 °C 37.9 °F /  3.3 °C 29.71in /  1006hPa South 3.5mph /  5.6km/h 8mph /  12.9km/h 89% 0.00in /  0mm 0 W/m2
07:24 41.2 °F /  5.1 °C 38.1 °F /  3.4 °C 29.70in /  1005.6hPa South 6.8mph /  10.9km/h 12mph /  19.3km/h 89% 0.00in /  0mm 0 W/m2
07:29 41.2 °F /  5.1 °C 38.1 °F /  3.4 °C 29.70in /  1005.6hPa SSW 6.2mph /  10km/h 13mph /  20.9km/h 89% 0.00in /  0mm 0 W/m2
07:34 41.2 °F /  5.1 °C 38.1 °F /  3.4 °C 29.70in /  1005.6hPa SSW 7.8mph /  12.6km/h 18mph /  29km/h 89% 0.00in /  0mm 0 W/m2
07:39 41.3 °F /  5.2 °C 38.2 °F /  3.4 °C 29.70in /  1005.6hPa South 5mph /  8km/h 18mph /  29km/h 89% 0.00in /  0mm 0 W/m2
07:43 41.3 °F /  5.2 °C 38.1 °F /  3.4 °C 29.70in /  1005.6hPa South 7.7mph /  12.4km/h 19mph /  30.6km/h 88.5% 0.00in /  0mm 0 W/m2
07:49 41.2 °F /  5.1 °C 37.9 °F /  3.3 °C 29.70in /  1005.6hPa South 2.8mph /  4.5km/h 6mph /  9.7km/h 88% 0.00in /  0mm 0 W/m2
07:54 41.2 °F /  5.1 °C 37.9 °F /  3.3 °C 29.70in /  1005.6hPa South 1.2mph /  1.9km/h 7mph /  11.3km/h 88% 0.00in /  0mm 0 W/m2
07:59 41.2 °F /  5.1 °C 37.9 °F /  3.3 °C 29.70in /  1005.6hPa South 2.2mph /  3.5km/h 7mph /  11.3km/h 88% 0.00in /  0mm 0 W/m2
08:04 41.2 °F /  5.1 °C 37.9 °F /  3.3 °C 29.70in /  1005.6hPa South 1.7mph /  2.7km/h 8mph /  12.9km/h 88% 0.00in /  0mm 5 W/m2
08:09 41.2 °F /  5.1 °C 37.9 °F /  3.3 °C 29.70in /  1005.6hPa South 3.8mph /  6.1km/h 9mph /  14.5km/h 88% 0.00in /  0mm 7 W/m2
08:14 41.2 °F /  5.1 °C 37.9 °F /  3.3 °C 29.69in /  1005.3hPa South 0.2mph /  0.3km/h 9mph /  14.5km/h 88% 0.00in /  0mm 9 W/m2
08:19 41 °F /  5 °C 37.8 °F /  3.2 °C 29.69in /  1005.3hPa South 1.4mph /  2.3km/h 4mph /  6.4km/h 88% 0.00in /  0mm 11 W/m2
08:24 40.6 °F /  4.8 °C 37.4 °F /  3 °C 29.69in /  1005.3hPa South 1.8mph /  2.9km/h 4mph /  6.4km/h 88% 0.00in /  0mm 12 W/m2
08:29 40.5 °F /  4.7 °C 37.2 °F /  2.9 °C 29.69in /  1005.3hPa South 2.1mph /  3.4km/h 6mph /  9.7km/h 88% 0.00in /  0mm 12 W/m2
08:34 40.5 °F /  4.7 °C 37.2 °F /  2.9 °C 29.69in /  1005.3hPa South 0.4mph /  0.6km/h 2mph /  3.2km/h 88% 0.00in /  0mm 14 W/m2
08:39 40.5 °F /  4.7 °C 37.3 °F /  2.9 °C 29.69in /  1005.3hPa SSW 1.2mph /  1.9km/h 5mph /  8km/h 88% 0.00in /  0mm 16 W/m2
08:44 40.8 °F /  4.9 °C 37.6 °F /  3.1 °C 29.68in /  1005hPa SW 3.4mph /  5.5km/h 8mph /  12.9km/h 88% 0.00in /  0mm 23 W/m2
08:49 41.1 °F /  5.1 °C 37.9 °F /  3.3 °C 29.68in /  1005hPa SW 4.4mph /  7.1km/h 8mph /  12.9km/h 88% 0.00in /  0mm 30 W/m2
08:54 41.2 °F /  5.1 °C 37.9 °F /  3.3 °C 29.68in /  1005hPa SSW 4.4mph /  7.1km/h 8mph /  12.9km/h 88% 0.00in /  0mm 37 W/m2
08:59 41.5 °F /  5.3 °C 38.2 °F /  3.4 °C 29.67in /  1004.6hPa SSW 2.5mph /  4km/h 8mph /  12.9km/h 88% 0.00in /  0mm 53 W/m2
09:04 41.7 °F /  5.4 °C 38.2 °F /  3.4 °C 29.67in /  1004.6hPa SSW 8mph /  12.9km/h 12mph /  19.3km/h 87.4% 0.00in /  0mm 56 W/m2
09:09 41.9 °F /  5.5 °C 38.3 °F /  3.5 °C 29.67in /  1004.6hPa SSW 4.7mph /  7.6km/h 12mph /  19.3km/h 87% 0.00in /  0mm 49 W/m2
09:14 42.3 °F /  5.7 °C 38.7 °F /  3.7 °C 29.67in /  1004.6hPa SSW 1mph /  1.6km/h 5mph /  8km/h 87% 0.00in /  0mm 33 W/m2
09:19 42.5 °F /  5.8 °C 38.6 °F /  3.7 °C 29.67in /  1004.6hPa SSW 4.3mph /  6.9km/h 7mph /  11.3km/h 86% 0.00in /  0mm 40 W/m2
09:24 42.6 °F /  5.9 °C 38.7 °F /  3.7 °C 29.67in /  1004.6hPa SSW 5.4mph /  8.7km/h 10mph /  16.1km/h 85.6% 0.00in /  0mm 39 W/m2
09:29 42.8 °F /  6 °C 38.7 °F /  3.7 °C 29.67in /  1004.6hPa SW 4mph /  6.4km/h 10mph /  16.1km/h 85% 0.00in /  0mm 37 W/m2
09:34 42.9 °F /  6.1 °C 38.8 °F /  3.8 °C 29.67in /  1004.6hPa South 0.9mph /  1.4km/h 6mph /  9.7km/h 85% 0.00in /  0mm 37 W/m2
09:39 42.8 °F /  6 °C 38.4 °F /  3.6 °C 29.67in /  1004.6hPa SSW 2mph /  3.2km/h 7mph /  11.3km/h 84.3% 0.00in /  0mm 39 W/m2
09:44 42.8 °F /  6 °C 38.3 °F /  3.5 °C 29.67in /  1004.6hPa SW 3.6mph /  5.8km/h 9mph /  14.5km/h 84% 0.00in /  0mm 58 W/m2
09:49 43.1 °F /  6.2 °C 38.6 °F /  3.7 °C 29.66in /  1004.3hPa SW 7.4mph /  11.9km/h 12mph /  19.3km/h 84% 0.00in /  0mm 62 W/m2
09:54 43.5 °F /  6.4 °C 38.7 °F /  3.7 °C 29.66in /  1004.3hPa SW 6.4mph /  10.3km/h 17mph /  27.4km/h 83% 0.00in /  0mm 58 W/m2
09:59 44.1 °F /  6.7 °C 39.2 °F /  4 °C 29.66in /  1004.3hPa SW 0.2mph /  0.3km/h 3mph /  4.8km/h 83% 0.00in /  0mm 58 W/m2
10:04 44.4 °F /  6.9 °C 39.4 °F /  4.1 °C 29.65in /  1003.9hPa SSE 5.8mph /  9.3km/h 10mph /  16.1km/h 82.4% 0.00in /  0mm 76 W/m2
10:09 44.3 °F /  6.8 °C 39 °F /  3.9 °C 29.65in /  1003.9hPa South 2.2mph /  3.5km/h 12mph /  19.3km/h 81.8% 0.00in /  0mm 69 W/m2
10:14 44.7 °F /  7.1 °C 39.7 °F /  4.3 °C 29.64in /  1003.6hPa Calm   3mph /  4.8km/h 82.5% 0.00in /  0mm 67 W/m2
10:19 44.8 °F /  7.1 °C 39.6 °F /  4.2 °C 29.64in /  1003.6hPa SW 2.8mph /  4.5km/h 9mph /  14.5km/h 82% 0.00in /  0mm 83 W/m2
10:24 44.8 °F /  7.1 °C 39.6 °F /  4.2 °C 29.63in /  1003.3hPa SW 8mph /  12.9km/h 14mph /  22.5km/h 81.6% 0.00in /  0mm 109 W/m2
10:29 45.1 °F /  7.3 °C 39.8 °F /  4.3 °C 29.63in /  1003.3hPa SSW 9.4mph /  15.1km/h 19mph /  30.6km/h 81.6% 0.00in /  0mm 125 W/m2
10:34 45.3 °F /  7.4 °C 39.9 °F /  4.4 °C 29.63in /  1003.3hPa SSW 4.2mph /  6.8km/h 9mph /  14.5km/h 81% 0.00in /  0mm 134 W/m2
10:39 45.7 °F /  7.6 °C 40.1 °F /  4.5 °C 29.62in /  1002.9hPa SW 3.3mph /  5.3km/h 13mph /  20.9km/h 81% 0.00in /  0mm 148 W/m2
10:44 45.9 °F /  7.7 °C 40.2 °F /  4.6 °C 29.62in /  1002.9hPa SSW 9.6mph /  15.4km/h 18mph /  29km/h 80.6% 0.00in /  0mm 146 W/m2
10:49 45.9 °F /  7.7 °C 40.1 °F /  4.5 °C 29.62in /  1002.9hPa SW 6mph /  9.7km/h 18mph /  29km/h 80% 0.00in /  0mm 123 W/m2
10:54 45.9 °F /  7.7 °C 40.2 °F /  4.6 °C 29.62in /  1002.9hPa SW 9.6mph /  15.4km/h 18mph /  29km/h 80.4% 0.00in /  0mm 113 W/m2
10:59 45.7 °F /  7.6 °C 39.9 °F /  4.4 °C 29.62in /  1002.9hPa SSW 10.6mph /  17.1km/h 27mph /  43.5km/h 80% 0.00in /  0mm 72 W/m2
11:04 45.3 °F /  7.4 °C 39.6 °F /  4.2 °C 29.62in /  1002.9hPa SSW 4.2mph /  6.8km/h 12mph /  19.3km/h 80% 0.00in /  0mm 60 W/m2
11:09 45.1 °F /  7.3 °C 39.6 °F /  4.2 °C 29.61in /  1002.6hPa SSW 4.6mph /  7.4km/h 12mph /  19.3km/h 80.6% 0.00in /  0mm 74 W/m2
11:14 45 °F /  7.2 °C 39.6 °F /  4.2 °C 29.60in /  1002.3hPa SSW 8.4mph /  13.5km/h 16mph /  25.7km/h 81% 0.00in /  0mm 84 W/m2
11:19 44.8 °F /  7.1 °C 39.4 °F /  4.1 °C 29.60in /  1002.3hPa SW 9mph /  14.5km/h 22mph /  35.4km/h 81% 0.00in /  0mm 79 W/m2
11:23 44.9 °F /  7.2 °C 39.5 °F /  4.2 °C 29.60in /  1002.3hPa SW 3.5mph /  5.6km/h 12mph /  19.3km/h 81% 0.00in /  0mm 47 W/m2
11:29 44.8 °F /  7.1 °C 39.4 °F /  4.1 °C 29.60in /  1002.3hPa SW 2.8mph /  4.5km/h 8mph /  12.9km/h 81% 0.00in /  0mm 39 W/m2
11:34 44.8 °F /  7.1 °C 39.4 °F /  4.1 °C 29.60in /  1002.3hPa SSW 4mph /  6.4km/h 10mph /  16.1km/h 81% 0.00in /  0mm 98 W/m2
11:39 44.8 °F /  7.1 °C 39.4 °F /  4.1 °C 29.60in /  1002.3hPa SSW 7.4mph /  11.9km/h 17mph /  27.4km/h 81% 0.00in /  0mm 116 W/m2
11:44 44.8 °F /  7.1 °C 39.6 °F /  4.2 °C 29.59in /  1001.9hPa South 6mph /  9.7km/h 16mph /  25.7km/h 82% 0.01in /  0.25mm 128 W/m2
11:49 44.3 °F /  6.8 °C 39.2 °F /  4 °C 29.59in /  1001.9hPa SW 5.3mph /  8.5km/h 23mph /  37km/h 82.2% 0.01in /  0.25mm 165 W/m2
11:54 44.3 °F /  6.8 °C 39.5 °F /  4.2 °C 29.59in /  1001.9hPa SSW 5mph /  8km/h 23mph /  37km/h 83% 0.01in /  0.25mm 167 W/m2
11:59 44.2 °F /  6.8 °C 39.5 °F /  4.2 °C 29.59in /  1001.9hPa SW 2.2mph /  3.5km/h 23mph /  37km/h 83.3% 0.01in /  0.25mm 95 W/m2
12:04 44.2 °F /  6.8 °C 39.7 °F /  4.3 °C 29.58in /  1001.6hPa SSW 3.2mph /  5.1km/h 11mph /  17.7km/h 84% 0.01in /  0.25mm 188 W/m2
12:09 44.2 °F /  6.8 °C 39.6 °F /  4.2 °C 29.57in /  1001.2hPa SSW 4.1mph /  6.6km/h 11mph /  17.7km/h 83.6% 0.01in /  0.25mm 146 W/m2
12:14 44.5 °F /  6.9 °C 40 °F /  4.4 °C 29.57in /  1001.2hPa SSW 3.2mph /  5.1km/h 11mph /  17.7km/h 83.8% 0.01in /  0.25mm 248 W/m2
12:19 45 °F /  7.2 °C 40.2 °F /  4.6 °C 29.57in /  1001.2hPa SSW 5.6mph /  9km/h 12mph /  19.3km/h 83.2% 0.01in /  0.25mm 207 W/m2
12:24 45.2 °F /  7.3 °C 40.4 °F /  4.7 °C 29.57in /  1001.2hPa South 3.8mph /  6.1km/h 12mph /  19.3km/h 83% 0.01in /  0.25mm 213 W/m2
12:29 45 °F /  7.2 °C 40.1 °F /  4.5 °C 29.57in /  1001.2hPa SSW 4.4mph /  7.1km/h 14mph /  22.5km/h 83% 0.01in /  0.25mm 290 W/m2
12:34 45.3 °F /  7.4 °C 40.5 °F /  4.7 °C 29.57in /  1001.2hPa SW 5.8mph /  9.3km/h 15mph /  24.1km/h 83% 0.01in /  0.25mm 315 W/m2
12:39 45.4 °F /  7.4 °C 40.6 °F /  4.8 °C 29.57in /  1001.2hPa SSW 4.2mph /  6.8km/h 15mph /  24.1km/h 83% 0.01in /  0.25mm 116 W/m2
12:44 45.1 °F /  7.3 °C 40.3 °F /  4.6 °C 29.57in /  1001.2hPa SSW 4.7mph /  7.6km/h 21mph /  33.8km/h 83% 0.01in /  0.25mm 74 W/m2
12:49 45 °F /  7.2 °C 40.1 °F /  4.5 °C 29.56in /  1000.9hPa South 9.2mph /  14.8km/h 21mph /  33.8km/h 83% 0.00in /  0mm 151 W/m2
12:54 45 °F /  7.2 °C 40.1 °F /  4.5 °C 29.56in /  1000.9hPa SW 7.4mph /  11.9km/h 21mph /  33.8km/h 83% 0.00in /  0mm 125 W/m2
12:59 45 °F /  7.2 °C 40.1 °F /  4.5 °C 29.56in /  1000.9hPa SW 10.2mph /  16.4km/h 21mph /  33.8km/h 83% 0.00in /  0mm 107 W/m2
13:04 44.8 °F /  7.1 °C 40.2 °F /  4.6 °C 29.56in /  1000.9hPa SW 7.3mph /  11.7km/h 21mph /  33.8km/h 83.5% 0.00in /  0mm 118 W/m2
13:09 44.8 °F /  7.1 °C 40.1 °F /  4.5 °C 29.56in /  1000.9hPa SW 6.1mph /  9.8km/h 12mph /  19.3km/h 83.6% 0.00in /  0mm 118 W/m2
13:14 44.8 °F /  7.1 °C 40 °F /  4.4 °C 29.56in /  1000.9hPa WSW 6.6mph /  10.6km/h 16mph /  25.7km/h 83.2% 0.00in /  0mm 243 W/m2
13:19 44.9 °F /  7.2 °C 40 °F /  4.4 °C 29.55in /  1000.6hPa WSW 9.1mph /  14.6km/h 14mph /  22.5km/h 83% 0.00in /  0mm 127 W/m2
13:24 44.8 °F /  7.1 °C 39.8 °F /  4.3 °C 29.55in /  1000.6hPa WSW 5.9mph /  9.5km/h 19mph /  30.6km/h 82.8% 0.00in /  0mm 167 W/m2
13:28 45 °F /  7.2 °C 40.2 °F /  4.6 °C 29.55in /  1000.6hPa SW 4.2mph /  6.8km/h 11mph /  17.7km/h 83% 0.00in /  0mm 216 W/m2
13:34 45.1 °F /  7.3 °C 40 °F /  4.4 °C 29.55in /  1000.6hPa WSW 5.4mph /  8.7km/h 11mph /  17.7km/h 82.2% 0.00in /  0mm 163 W/m2
13:39 45.1 °F /  7.3 °C 39.9 °F /  4.4 °C 29.55in /  1000.6hPa WSW 7.3mph /  11.7km/h 15mph /  24.1km/h 82% 0.00in /  0mm 165 W/m2
13:44 45.1 °F /  7.3 °C 39.9 °F /  4.4 °C 29.55in /  1000.6hPa WSW 5.6mph /  9km/h 10mph /  16.1km/h 82% 0.00in /  0mm 156 W/m2
13:49 45.1 °F /  7.3 °C 39.8 °F /  4.3 °C 29.55in /  1000.6hPa WSW 6.4mph /  10.3km/h 10mph /  16.1km/h 82% 0.00in /  0mm 62 W/m2
13:54 45 °F /  7.2 °C 39.6 °F /  4.2 °C 29.55in /  1000.6hPa WSW 8.2mph /  13.2km/h 11mph /  17.7km/h 81% 0.00in /  0mm 46 W/m2
13:59 44.8 °F /  7.1 °C 39.4 °F /  4.1 °C 29.55in /  1000.6hPa WSW 9.8mph /  15.8km/h 13mph /  20.9km/h 81.2% 0.00in /  0mm 37 W/m2
14:04 44.6 °F /  7 °C 39.4 °F /  4.1 °C 29.56in /  1000.9hPa WSW 7.2mph /  11.6km/h 20mph /  32.2km/h 82% 0.00in /  0mm 16 W/m2
14:09 43.7 °F /  6.5 °C 38.8 °F /  3.8 °C 29.56in /  1000.9hPa West 10mph /  16.1km/h 20mph /  32.2km/h 83% 0.01in /  0.25mm 28 W/m2
14:14 42.9 °F /  6.1 °C 38.5 °F /  3.6 °C 29.56in /  1000.9hPa West 6.8mph /  10.9km/h 12mph /  19.3km/h 84.4% 0.02in /  0.51mm 32 W/m2
14:19 42.5 °F /  5.8 °C 38.5 °F /  3.6 °C 29.56in /  1000.9hPa West 6.2mph /  10km/h 19mph /  30.6km/h 85.4% 0.02in /  0.51mm 25 W/m2
14:24 42.4 °F /  5.8 °C 38.5 °F /  3.6 °C 29.56in /  1000.9hPa West 2.5mph /  4km/h 8mph /  12.9km/h 86% 0.02in /  0.51mm 46 W/m2
14:29 42.4 °F /  5.8 °C 38.8 °F /  3.8 °C 29.57in /  1001.2hPa WSW 5.5mph /  8.9km/h 9mph /  14.5km/h 87% 0.02in /  0.51mm 46 W/m2
14:34 42.3 °F /  5.7 °C 38.8 °F /  3.8 °C 29.57in /  1001.2hPa WSW 4.1mph /  6.6km/h 9mph /  14.5km/h 87.4% 0.02in /  0.51mm 28 W/m2
14:39 42.3 °F /  5.7 °C 39 °F /  3.9 °C 29.57in /  1001.2hPa WSW 2.6mph /  4.2km/h 6mph /  9.7km/h 88% 0.02in /  0.51mm 37 W/m2
14:43 42.3 °F /  5.7 °C 39.1 °F /  3.9 °C 29.57in /  1001.2hPa WSW 4mph /  6.4km/h 7mph /  11.3km/h 88.3% 0.02in /  0.51mm 39 W/m2
14:49 42.3 °F /  5.7 °C 39.2 °F /  4 °C 29.57in /  1001.2hPa WSW 8.6mph /  13.8km/h 19mph /  30.6km/h 89% 0.02in /  0.51mm 18 W/m2
14:54 41.8 °F /  5.4 °C 38.7 °F /  3.7 °C 29.57in /  1001.2hPa West 7.6mph /  12.2km/h 19mph /  30.6km/h 89% 0.04in /  1.02mm 12 W/m2
14:59 41.1 °F /  5.1 °C 38 °F /  3.3 °C 29.57in /  1001.2hPa West 12.2mph /  19.6km/h 24mph /  38.6km/h 89% 0.05in /  1.27mm 21 W/m2
15:04 40.8 °F /  4.9 °C 37.8 °F /  3.2 °C 29.57in /  1001.2hPa West 4.1mph /  6.6km/h 13mph /  20.9km/h 89% 0.06in /  1.52mm 30 W/m2
15:09 40.8 °F /  4.9 °C 38.1 °F /  3.4 °C 29.57in /  1001.2hPa West 4.4mph /  7.1km/h 18mph /  29km/h 90% 0.05in /  1.27mm 28 W/m2
15:14 40.6 °F /  4.8 °C 37.9 °F /  3.3 °C 29.57in /  1001.2hPa West 5.4mph /  8.7km/h 16mph /  25.7km/h 90% 0.04in /  1.02mm 28 W/m2
15:18 40.6 °F /  4.8 °C 37.9 °F /  3.3 °C 29.57in /  1001.2hPa West 7mph /  11.3km/h 13mph /  20.9km/h 90% 0.04in /  1.02mm 26 W/m2
15:24 40.6 °F /  4.8 °C 37.9 °F /  3.3 °C 29.57in /  1001.2hPa West 6.8mph /  10.9km/h 13mph /  20.9km/h 90% 0.04in /  1.02mm 23 W/m2
15:29 40.5 °F /  4.7 °C 37.9 °F /  3.3 °C 29.57in /  1001.2hPa WNW 8.4mph /  13.5km/h 18mph /  29km/h 90.4% 0.04in /  1.02mm 11 W/m2
15:34 40.5 °F /  4.7 °C 38.1 °F /  3.4 °C 29.57in /  1001.2hPa WNW 6.3mph /  10.1km/h 18mph /  29km/h 91% 0.04in /  1.02mm 7 W/m2
15:39 40.5 °F /  4.7 °C 38.2 °F /  3.4 °C 29.57in /  1001.2hPa WNW 3.1mph /  5km/h 9mph /  14.5km/h 91% 0.04in /  1.02mm 7 W/m2
15:44 40.6 °F /  4.8 °C 38.3 °F /  3.5 °C 29.57in /  1001.2hPa WNW 2.4mph /  3.9km/h 6mph /  9.7km/h 91% 0.03in /  0.76mm 9 W/m2
15:49 40.5 °F /  4.7 °C 38.1 °F /  3.4 °C 29.57in /  1001.2hPa WNW 4.1mph /  6.6km/h 8mph /  12.9km/h 91% 0.03in /  0.76mm 11 W/m2
15:54 40.5 °F /  4.7 °C 38.1 °F /  3.4 °C 29.57in /  1001.2hPa West 3.2mph /  5.1km/h 8mph /  12.9km/h 91% 0.02in /  0.51mm 7 W/m2
15:59 40.5 °F /  4.7 °C 38.1 °F /  3.4 °C 29.57in /  1001.2hPa West 3.6mph /  5.8km/h 8mph /  12.9km/h 91% 0.01in /  0.25mm 5 W/m2
16:04 40.5 °F /  4.7 °C 38.1 °F /  3.4 °C 29.57in /  1001.2hPa West 0.9mph /  1.4km/h 5mph /  8km/h 91% 0.01in /  0.25mm 5 W/m2
16:09 40.3 °F /  4.6 °C 37.9 °F /  3.3 °C 29.57in /  1001.2hPa West 2.1mph /  3.4km/h 6mph /  9.7km/h 91% 0.00in /  0mm 0 W/m2
16:14 40.2 °F /  4.6 °C 37.8 °F /  3.2 °C 29.58in /  1001.6hPa West 2.3mph /  3.7km/h 5mph /  8km/h 91% 0.00in /  0mm 0 W/m2
16:19 39.9 °F /  4.4 °C 37.6 °F /  3.1 °C 29.58in /  1001.6hPa West 3.7mph /  6km/h 7mph /  11.3km/h 91% 0.00in /  0mm 0 W/m2
16:23 39.8 °F /  4.3 °C 37.5 °F /  3.1 °C 29.58in /  1001.6hPa West 3.6mph /  5.8km/h 6mph /  9.7km/h 91% 0.00in /  0mm 0 W/m2
16:29 39.7 °F /  4.3 °C 37.4 °F /  3 °C 29.58in /  1001.6hPa West 2.7mph /  4.3km/h 5mph /  8km/h 91% 0.00in /  0mm 0 W/m2
16:34 39.6 °F /  4.2 °C 37.3 °F /  2.9 °C 29.59in /  1001.9hPa West 2.5mph /  4km/h 5mph /  8km/h 91% 0.00in /  0mm 0 W/m2
16:39 39.6 °F /  4.2 °C 37.2 °F /  2.9 °C 29.59in /  1001.9hPa West 3.6mph /  5.8km/h 6mph /  9.7km/h 91% 0.00in /  0mm 0 W/m2
16:44 39.4 °F /  4.1 °C 37 °F /  2.8 °C 29.59in /  1001.9hPa WNW 4.4mph /  7.1km/h 7mph /  11.3km/h 91% 0.00in /  0mm 0 W/m2
16:49 39.3 °F /  4.1 °C 37 °F /  2.8 °C 29.59in /  1001.9hPa WNW 2.2mph /  3.5km/h 5mph /  8km/h 91% 0.00in /  0mm 0 W/m2
16:54 39.2 °F /  4 °C 36.9 °F /  2.7 °C 29.59in /  1001.9hPa WNW 2.9mph /  4.7km/h 5mph /  8km/h 91% 0.00in /  0mm 0 W/m2
16:59 39.2 °F /  4 °C 36.9 °F /  2.7 °C 29.59in /  1001.9hPa WNW 2.7mph /  4.3km/h 5mph /  8km/h 91% 0.00in /  0mm 0 W/m2
17:04 39 °F /  3.9 °C 36.7 °F /  2.6 °C 29.59in /  1001.9hPa WNW 3.3mph /  5.3km/h 6mph /  9.7km/h 91% 0.00in /  0mm 0 W/m2
17:09 39 °F /  3.9 °C 36.8 °F /  2.7 °C 29.59in /  1001.9hPa WNW 2.8mph /  4.5km/h 5mph /  8km/h 91.6% 0.00in /  0mm 0 W/m2
17:14 39 °F /  3.9 °C 36.9 °F /  2.7 °C 29.60in /  1002.3hPa WNW 3.9mph /  6.3km/h 7mph /  11.3km/h 92% 0.00in /  0mm 0 W/m2
17:19 38.9 °F /  3.8 °C 36.8 °F /  2.7 °C 29.60in /  1002.3hPa WNW 3.2mph /  5.1km/h 7mph /  11.3km/h 92% 0.00in /  0mm 0 W/m2
17:24 38.8 °F /  3.8 °C 36.7 °F /  2.6 °C 29.60in /  1002.3hPa WNW 2.3mph /  3.7km/h 6mph /  9.7km/h 92% 0.00in /  0mm 0 W/m2
17:29 38.8 °F /  3.8 °C 36.7 °F /  2.6 °C 29.60in /  1002.3hPa WNW 1.2mph /  1.9km/h 4mph /  6.4km/h 92% 0.00in /  0mm 0 W/m2
17:34 38.7 °F /  3.7 °C 36.5 °F /  2.5 °C 29.60in /  1002.3hPa WNW 1.9mph /  3.1km/h 6mph /  9.7km/h 92% 0.00in /  0mm 0 W/m2
17:39 38.7 °F /  3.7 °C 36.5 °F /  2.5 °C 29.60in /  1002.3hPa WNW 3.4mph /  5.5km/h 6mph /  9.7km/h 92% 0.00in /  0mm 0 W/m2
17:44 38.8 °F /  3.8 °C 36.7 °F /  2.6 °C 29.60in /  1002.3hPa WNW 0.9mph /  1.4km/h 5mph /  8km/h 92% 0.00in /  0mm 0 W/m2
17:49 38.8 °F /  3.8 °C 36.6 °F /  2.6 °C 29.61in /  1002.6hPa WNW 1.1mph /  1.8km/h 4mph /  6.4km/h 92% 0.00in /  0mm 0 W/m2
17:54 38.7 °F /  3.7 °C 36.5 °F /  2.5 °C 29.61in /  1002.6hPa WNW 3.2mph /  5.1km/h 6mph /  9.7km/h 92% 0.00in /  0mm 0 W/m2
17:59 38.5 °F /  3.6 °C 36.3 °F /  2.4 °C 29.61in /  1002.6hPa WNW 2.5mph /  4km/h 6mph /  9.7km/h 92% 0.00in /  0mm 0 W/m2
18:04 38.5 °F /  3.6 °C 36.3 °F /  2.4 °C 29.61in /  1002.6hPa WNW 1mph /  1.6km/h 5mph /  8km/h 92% 0.00in /  0mm 0 W/m2
18:09 38.5 °F /  3.6 °C 36.3 °F /  2.4 °C 29.61in /  1002.6hPa WNW 1.8mph /  2.9km/h 4mph /  6.4km/h 92% 0.00in /  0mm 0 W/m2
18:14 38.5 °F /  3.6 °C 36.3 °F /  2.4 °C 29.61in /  1002.6hPa WNW 2.7mph /  4.3km/h 5mph /  8km/h 92% 0.00in /  0mm 0 W/m2
18:19 38.5 °F /  3.6 °C 36.3 °F /  2.4 °C 29.61in /  1002.6hPa WNW 2.9mph /  4.7km/h 6mph /  9.7km/h 92% 0.00in /  0mm 0 W/m2
18:24 38.5 °F /  3.6 °C 36.3 °F /  2.4 °C 29.62in /  1002.9hPa WNW 2.3mph /  3.7km/h 6mph /  9.7km/h 92% 0.00in /  0mm 0 W/m2
18:29 38.5 °F /  3.6 °C 36.3 °F /  2.4 °C 29.62in /  1002.9hPa WNW 2.5mph /  4km/h 4mph /  6.4km/h 92% 0.00in /  0mm 0 W/m2
18:34 38.5 °F /  3.6 °C 36.3 °F /  2.4 °C 29.62in /  1002.9hPa WNW 3.4mph /  5.5km/h 5mph /  8km/h 92% 0.00in /  0mm 0 W/m2
18:39 38.3 °F /  3.5 °C 36.1 °F /  2.3 °C 29.62in /  1002.9hPa WNW 2.5mph /  4km/h 5mph /  8km/h 92% 0.00in /  0mm 0 W/m2
18:44 38.4 °F /  3.6 °C 36.2 °F /  2.3 °C 29.62in /  1002.9hPa WNW 4mph /  6.4km/h 6mph /  9.7km/h 92% 0.00in /  0mm 0 W/m2
18:49 38.5 °F /  3.6 °C 36.3 °F /  2.4 °C 29.62in /  1002.9hPa WNW 2.4mph /  3.9km/h 6mph /  9.7km/h 92% 0.00in /  0mm 0 W/m2
18:54 38.4 °F /  3.6 °C 36.2 °F /  2.3 °C 29.62in /  1002.9hPa WNW 1.9mph /  3.1km/h 5mph /  8km/h 92% 0.00in /  0mm 0 W/m2
18:58 38.2 °F /  3.4 °C 36 °F /  2.2 °C 29.62in /  1002.9hPa WNW 2.4mph /  3.9km/h 5mph /  8km/h 92% 0.00in /  0mm 0 W/m2
19:04 38 °F /  3.3 °C 35.9 °F /  2.2 °C 29.62in /  1002.9hPa WNW 1.2mph /  1.9km/h 4mph /  6.4km/h 92% 0.00in /  0mm 0 W/m2
19:09 37.9 °F /  3.3 °C 35.8 °F /  2.1 °C 29.63in /  1003.3hPa WNW 2.2mph /  3.5km/h 4mph /  6.4km/h 92% 0.00in /  0mm 0 W/m2
19:14 37.9 °F /  3.3 °C 35.8 °F /  2.1 °C 29.63in /  1003.3hPa WNW 2.1mph /  3.4km/h 4mph /  6.4km/h 92% 0.00in /  0mm 0 W/m2
19:19 37.9 °F /  3.3 °C 35.8 °F /  2.1 °C 29.63in /  1003.3hPa WNW 2.2mph /  3.5km/h 5mph /  8km/h 92% 0.00in /  0mm 0 W/m2
19:24 37.9 °F /  3.3 °C 35.8 °F /  2.1 °C 29.63in /  1003.3hPa WNW 2.2mph /  3.5km/h 4mph /  6.4km/h 92% 0.00in /  0mm 0 W/m2
19:29 37.9 °F /  3.3 °C 35.8 °F /  2.1 °C 29.63in /  1003.3hPa WNW 1mph /  1.6km/h 4mph /  6.4km/h 92% 0.00in /  0mm 0 W/m2
19:34 38 °F /  3.3 °C 35.9 °F /  2.2 °C 29.63in /  1003.3hPa WNW 0.2mph /  0.3km/h 1mph /  1.6km/h 92% 0.00in /  0mm 0 W/m2
19:39 37.9 °F /  3.3 °C 35.8 °F /  2.1 °C 29.63in /  1003.3hPa Calm   1mph /  1.6km/h 92% 0.00in /  0mm 0 W/m2
19:44 37.6 °F /  3.1 °C 35.4 °F /  1.9 °C 29.63in /  1003.3hPa WNW 0.8mph /  1.3km/h 6mph /  9.7km/h 92% 0.00in /  0mm 0 W/m2
19:49 37.6 °F /  3.1 °C 35.4 °F /  1.9 °C 29.63in /  1003.3hPa Calm   6mph /  9.7km/h 92% 0.00in /  0mm 0 W/m2
19:54 37.4 °F /  3 °C 35.2 °F /  1.8 °C 29.64in /  1003.6hPa Calm   6mph /  9.7km/h 92% 0.00in /  0mm 0 W/m2
19:59 37 °F /  2.8 °C 34.9 °F /  1.6 °C 29.64in /  1003.6hPa WNW 0.2mph /  0.3km/h 6mph /  9.7km/h 92% 0.00in /  0mm 0 W/m2
20:04 36.9 °F /  2.7 °C 34.7 °F /  1.5 °C 29.64in /  1003.6hPa Calm     92% 0.00in /  0mm 0 W/m2
20:09 36.9 °F /  2.7 °C 34.7 °F /  1.5 °C 29.64in /  1003.6hPa Calm   2mph /  3.2km/h 92% 0.00in /  0mm 0 W/m2
20:14 36.7 °F /  2.6 °C 34.5 °F /  1.4 °C 29.64in /  1003.6hPa Calm     92% 0.00in /  0mm 0 W/m2
20:19 36.5 °F /  2.5 °C 34.3 °F /  1.3 °C 29.64in /  1003.6hPa Calm   1mph /  1.6km/h 92% 0.00in /  0mm 0 W/m2
20:24 36.3 °F /  2.4 °C 34.2 °F /  1.2 °C 29.64in /  1003.6hPa WNW 0.2mph /  0.3km/h 1mph /  1.6km/h 92% 0.00in /  0mm 0 W/m2
20:29 36.1 °F /  2.3 °C 34 °F /  1.1 °C 29.64in /  1003.6hPa WNW 0.4mph /  0.6km/h 2mph /  3.2km/h 92% 0.00in /  0mm 0 W/m2
20:33 36.1 °F /  2.3 °C 34 °F /  1.1 °C 29.65in /  1003.9hPa Calm   2mph /  3.2km/h 92% 0.00in /  0mm 0 W/m2
20:39 36.1 °F /  2.3 °C 34 °F /  1.1 °C 29.65in /  1003.9hPa Calm   1mph /  1.6km/h 92% 0.00in /  0mm 0 W/m2
20:44 36.1 °F /  2.3 °C 34 °F /  1.1 °C 29.65in /  1003.9hPa WNW 0.4mph /  0.6km/h 2mph /  3.2km/h 92% 0.00in /  0mm 0 W/m2
20:49 36.1 °F /  2.3 °C 34 °F /  1.1 °C 29.65in /  1003.9hPa Calm   2mph /  3.2km/h 92% 0.00in /  0mm 0 W/m2
20:54 36.1 °F /  2.3 °C 34 °F /  1.1 °C 29.64in /  1003.6hPa Calm     92.2% 0.00in /  0mm 0 W/m2
20:59 36 °F /  2.2 °C 34.2 °F /  1.2 °C 29.64in /  1003.6hPa Calm     93% 0.00in /  0mm 0 W/m2
21:04 35.8 °F /  2.1 °C 34 °F /  1.1 °C 29.64in /  1003.6hPa Calm     93% 0.00in /  0mm 0 W/m2
21:09 35.5 °F /  1.9 °C 33.5 °F /  0.8 °C 29.64in /  1003.6hPa Calm     92.4% 0.00in /  0mm 0 W/m2
21:14 35.2 °F /  1.8 °C 33.3 °F /  0.7 °C 29.64in /  1003.6hPa Calm     92.6% 0.00in /  0mm 0 W/m2
21:19 35.1 °F /  1.7 °C 32.9 °F /  0.5 °C 29.64in /  1003.6hPa Calm     92% 0.00in /  0mm 0 W/m2
21:24 35.1 °F /  1.7 °C 32.9 °F /  0.5 °C 29.64in /  1003.6hPa Calm     92% 0.00in /  0mm 0 W/m2
21:29 34.9 °F /  1.6 °C 33.1 °F /  0.6 °C 29.64in /  1003.6hPa Calm     92.8% 0.00in /  0mm 0 W/m2
21:34 34.8 °F /  1.6 °C 33 °F /  0.6 °C 29.64in /  1003.6hPa Calm     93% 0.00in /  0mm 0 W/m2
21:39 34.6 °F /  1.4 °C 32.8 °F /  0.4 °C 29.64in /  1003.6hPa Calm     93% 0.00in /  0mm 0 W/m2
21:44 34.5 °F /  1.4 °C 32.7 °F /  0.4 °C 29.64in /  1003.6hPa Calm     93% 0.00in /  0mm 0 W/m2
21:49 34.5 °F /  1.4 °C 32.7 °F /  0.4 °C 29.64in /  1003.6hPa Calm     93% 0.00in /  0mm 0 W/m2
21:54 34.8 °F /  1.6 °C 33 °F /  0.6 °C 29.64in /  1003.6hPa Calm     93% 0.00in /  0mm 0 W/m2
21:59 35 °F /  1.7 °C 33.2 °F /  0.7 °C 29.64in /  1003.6hPa WNW 1.6mph /  2.6km/h 3mph /  4.8km/h 93% 0.00in /  0mm 0 W/m2
22:04 35.2 °F /  1.8 °C 33.4 °F /  0.8 °C 29.65in /  1003.9hPa WNW 1.6mph /  2.6km/h 3mph /  4.8km/h 93% 0.00in /  0mm 0 W/m2
22:09 35.2 °F /  1.8 °C 33.4 °F /  0.8 °C 29.64in /  1003.6hPa Calm   2mph /  3.2km/h 93% 0.00in /  0mm 0 W/m2
22:14 35.1 °F /  1.7 °C 33.3 °F /  0.7 °C 29.65in /  1003.9hPa Calm   1mph /  1.6km/h 93% 0.00in /  0mm 0 W/m2
22:19 35.1 °F /  1.7 °C 33.3 °F /  0.7 °C 29.65in /  1003.9hPa Calm   1mph /  1.6km/h 93% 0.00in /  0mm 0 W/m2
22:24 34.9 °F /  1.6 °C 33.1 °F /  0.6 °C 29.65in /  1003.9hPa Calm     93% 0.00in /  0mm 0 W/m2
22:29 34.9 °F /  1.6 °C 33.1 °F /  0.6 °C 29.64in /  1003.6hPa Calm     93% 0.00in /  0mm 0 W/m2
22:34 34.8 °F /  1.6 °C 33 °F /  0.6 °C 29.64in /  1003.6hPa Calm     93% 0.00in /  0mm 0 W/m2
22:39 34.7 °F /  1.5 °C 32.9 °F /  0.5 °C 29.65in /  1003.9hPa Calm     93% 0.00in /  0mm 0 W/m2
22:44 34.6 °F /  1.4 °C 32.8 °F /  0.4 °C 29.64in /  1003.6hPa Calm     93% 0.00in /  0mm 0 W/m2
22:49 34.6 °F /  1.4 °C 32.8 °F /  0.4 °C 29.64in /  1003.6hPa Calm     93% 0.00in /  0mm 0 W/m2
22:54 34.6 °F /  1.4 °C 32.8 °F /  0.4 °C 29.64in /  1003.6hPa Calm     93% 0.00in /  0mm 0 W/m2
22:59 34.7 °F /  1.5 °C 32.9 °F /  0.5 °C 29.64in /  1003.6hPa Calm     93% 0.00in /  0mm 0 W/m2
23:04 34.6 °F /  1.4 °C 32.8 °F /  0.4 °C 29.64in /  1003.6hPa WNW 0.4mph /  0.6km/h 2mph /  3.2km/h 93% 0.00in /  0mm 0 W/m2
23:09 34.6 °F /  1.4 °C 32.8 °F /  0.4 °C 29.64in /  1003.6hPa Calm   1mph /  1.6km/h 93% 0.00in /  0mm 0 W/m2
23:14 34.6 °F /  1.4 °C 32.8 °F /  0.4 °C 29.64in /  1003.6hPa Calm     93% 0.00in /  0mm 0 W/m2
23:19 34.5 °F /  1.4 °C 32.7 °F /  0.4 °C 29.65in /  1003.9hPa Calm     93% 0.00in /  0mm 0 W/m2
23:24 34.3 °F /  1.3 °C 32.5 °F /  0.3 °C 29.65in /  1003.9hPa WNW 0.2mph /  0.3km/h 1mph /  1.6km/h 93% 0.00in /  0mm 0 W/m2
23:29 34.4 °F /  1.3 °C 32.7 °F /  0.4 °C 29.65in /  1003.9hPa WNW 1.4mph /  2.3km/h 3mph /  4.8km/h 93.4% 0.00in /  0mm 0 W/m2
23:34 34.8 °F /  1.6 °C 33.1 °F /  0.6 °C 29.65in /  1003.9hPa WNW 1.7mph /  2.7km/h 5mph /  8km/h 93.4% 0.00in /  0mm 0 W/m2
23:39 35.4 °F /  1.9 °C 33.8 °F /  1 °C 29.64in /  1003.6hPa WNW 2.5mph /  4km/h 5mph /  8km/h 93.8% 0.00in /  0mm 0 W/m2
23:43 36 °F /  2.2 °C 34.3 °F /  1.3 °C 29.64in /  1003.6hPa WNW 1.5mph /  2.4km/h 5mph /  8km/h 94% 0.00in /  0mm 0 W/m2
23:49 36.3 °F /  2.4 °C 34.7 °F /  1.5 °C 29.64in /  1003.6hPa West 1.3mph /  2.1km/h 3mph /  4.8km/h 94% 0.00in /  0mm 0 W/m2
23:54 36.5 °F /  2.5 °C 34.9 °F /  1.6 °C 29.64in /  1003.6hPa West 0.4mph /  0.6km/h 3mph /  4.8km/h 94% 0.00in /  0mm 0 W/m2
23:59 36.5 °F /  2.5 °C 34.9 °F /  1.6 °C 29.63in /  1003.3hPa West 0.8mph /  1.3km/h 3mph /  4.8km/h 94% 0.00in /  0mm 0 W/m2
Bath Spa Weather
Compliments of Weather Underground - 2 mb